sensor_id;sensor_type;location;lat;lon;timestamp;temperature;humidity
20726;DHT22;10524;48.132;8.518;2023-04-01T00:01:12;5.30;99.90
20726;DHT22;10524;48.132;8.518;2023-04-01T00:03:39;5.20;99.90
20726;DHT22;10524;48.132;8.518;2023-04-01T00:06:05;5.20;99.90
20726;DHT22;10524;48.132;8.518;2023-04-01T00:08:31;5.10;99.90
20726;DHT22;10524;48.132;8.518;2023-04-01T00:10:57;5.10;99.90
20726;DHT22;10524;48.132;8.518;2023-04-01T00:13:25;5.00;99.90
20726;DHT22;10524;48.132;8.518;2023-04-01T00:15:52;5.00;99.90
20726;DHT22;10524;48.132;8.518;2023-04-01T00:18:17;5.00;99.90
20726;DHT22;10524;48.132;8.518;2023-04-01T00:20:48;5.00;99.90
20726;DHT22;10524;48.132;8.518;2023-04-01T00:23:14;5.00;99.90
20726;DHT22;10524;48.132;8.518;2023-04-01T00:25:40;4.90;99.90
20726;DHT22;10524;48.132;8.518;2023-04-01T00:28:06;5.00;99.90
20726;DHT22;10524;48.132;8.518;2023-04-01T00:30:32;4.90;99.90
20726;DHT22;10524;48.132;8.518;2023-04-01T00:32:57;4.90;99.90
20726;DHT22;10524;48.132;8.518;2023-04-01T00:35:23;4.80;99.90
20726;DHT22;10524;48.132;8.518;2023-04-01T00:37:49;4.80;99.90
20726;DHT22;10524;48.132;8.518;2023-04-01T00:40:28;4.70;99.90
20726;DHT22;10524;48.132;8.518;2023-04-01T00:42:55;4.60;99.90
20726;DHT22;10524;48.132;8.518;2023-04-01T00:47:52;4.50;99.90
20726;DHT22;10524;48.132;8.518;2023-04-01T00:50:19;4.40;99.90
20726;DHT22;10524;48.132;8.518;2023-04-01T00:52:45;4.30;99.90
20726;DHT22;10524;48.132;8.518;2023-04-01T00:55:14;4.40;99.90
20726;DHT22;10524;48.132;8.518;2023-04-01T00:57:42;4.40;99.90
20726;DHT22;10524;48.132;8.518;2023-04-01T01:00:11;4.50;99.90
20726;DHT22;10524;48.132;8.518;2023-04-01T01:02:41;4.50;99.90
20726;DHT22;10524;48.132;8.518;2023-04-01T01:05:11;4.50;99.90
20726;DHT22;10524;48.132;8.518;2023-04-01T01:07:57;4.50;99.90
20726;DHT22;10524;48.132;8.518;2023-04-01T01:10:34;4.40;99.90
20726;DHT22;10524;48.132;8.518;2023-04-01T01:13:22;4.40;99.90
20726;DHT22;10524;48.132;8.518;2023-04-01T01:15:57;4.40;99.90
20726;DHT22;10524;48.132;8.518;2023-04-01T01:37:07;4.70;99.90
20726;DHT22;10524;48.132;8.518;2023-04-01T01:39:35;4.80;99.90
20726;DHT22;10524;48.132;8.518;2023-04-01T01:42:04;4.80;99.90
20726;DHT22;10524;48.132;8.518;2023-04-01T01:44:32;4.90;99.90
20726;DHT22;10524;48.132;8.518;2023-04-01T01:47:00;4.90;99.90
20726;DHT22;10524;48.132;8.518;2023-04-01T01:49:27;4.90;99.90
20726;DHT22;10524;48.132;8.518;2023-04-01T01:51:56;4.90;99.90
20726;DHT22;10524;48.132;8.518;2023-04-01T01:54:22;4.90;99.90
20726;DHT22;10524;48.132;8.518;2023-04-01T01:56:50;4.90;99.90
20726;DHT22;10524;48.132;8.518;2023-04-01T01:59:19;4.90;99.90
20726;DHT22;10524;48.132;8.518;2023-04-01T02:01:51;4.90;99.90
20726;DHT22;10524;48.132;8.518;2023-04-01T02:04:19;4.80;99.90
20726;DHT22;10524;48.132;8.518;2023-04-01T02:07:33;4.80;99.90
20726;DHT22;10524;48.132;8.518;2023-04-01T02:09:57;4.80;99.90
20726;DHT22;10524;48.132;8.518;2023-04-01T02:12:24;4.80;99.90
20726;DHT22;10524;48.132;8.518;2023-04-01T02:15:25;4.70;99.90
20726;DHT22;10524;48.132;8.518;2023-04-01T02:17:45;4.80;99.90
20726;DHT22;10524;48.132;8.518;2023-04-01T02:20:16;4.80;99.90
20726;DHT22;10524;48.132;8.518;2023-04-01T02:22:52;4.80;99.90
20726;DHT22;10524;48.132;8.518;2023-04-01T02:25:27;4.80;99.90
20726;DHT22;10524;48.132;8.518;2023-04-01T02:27:55;4.80;99.90
20726;DHT22;10524;48.132;8.518;2023-04-01T02:30:21;4.90;99.90
20726;DHT22;10524;48.132;8.518;2023-04-01T02:32:48;4.80;99.90
20726;DHT22;10524;48.132;8.518;2023-04-01T02:35:16;4.90;99.90
20726;DHT22;10524;48.132;8.518;2023-04-01T02:37:43;4.80;99.90
20726;DHT22;10524;48.132;8.518;2023-04-01T02:40:14;4.90;99.90
20726;DHT22;10524;48.132;8.518;2023-04-01T02:42:40;4.90;99.90
20726;DHT22;10524;48.132;8.518;2023-04-01T02:45:07;4.90;99.90
20726;DHT22;10524;48.132;8.518;2023-04-01T02:47:33;4.90;99.90
20726;DHT22;10524;48.132;8.518;2023-04-01T02:49:58;5.00;99.90
20726;DHT22;10524;48.132;8.518;2023-04-01T02:52:29;5.00;99.90
20726;DHT22;10524;48.132;8.518;2023-04-01T02:54:55;5.00;99.90
20726;DHT22;10524;48.132;8.518;2023-04-01T02:57:21;5.00;99.90
20726;DHT22;10524;48.132;8.518;2023-04-01T02:59:47;4.90;99.90
20726;DHT22;10524;48.132;8.518;2023-04-01T03:02:13;4.80;99.90
20726;DHT22;10524;48.132;8.518;2023-04-01T03:04:39;4.70;99.90
20726;DHT22;10524;48.132;8.518;2023-04-01T03:07:05;4.70;99.90
20726;DHT22;10524;48.132;8.518;2023-04-01T03:09:30;4.70;99.90
20726;DHT22;10524;48.132;8.518;2023-04-01T03:11:56;4.80;99.90
20726;DHT22;10524;48.132;8.518;2023-04-01T03:14:22;4.80;99.90
20726;DHT22;10524;48.132;8.518;2023-04-01T03:16:47;4.80;99.90
20726;DHT22;10524;48.132;8.518;2023-04-01T03:19:13;4.80;99.90
20726;DHT22;10524;48.132;8.518;2023-04-01T03:21:39;4.80;99.90
20726;DHT22;10524;48.132;8.518;2023-04-01T03:24:05;4.90;99.90
20726;DHT22;10524;48.132;8.518;2023-04-01T03:26:31;4.90;99.90
20726;DHT22;10524;48.132;8.518;2023-04-01T03:28:57;4.90;99.90
20726;DHT22;10524;48.132;8.518;2023-04-01T03:31:23;4.90;99.90
20726;DHT22;10524;48.132;8.518;2023-04-01T03:33:49;4.90;99.90
20726;DHT22;10524;48.132;8.518;2023-04-01T03:36:14;4.90;99.90
20726;DHT22;10524;48.132;8.518;2023-04-01T03:38:41;4.90;99.90
20726;DHT22;10524;48.132;8.518;2023-04-01T03:41:07;4.90;99.90
20726;DHT22;10524;48.132;8.518;2023-04-01T03:43:33;4.90;99.90
20726;DHT22;10524;48.132;8.518;2023-04-01T03:45:58;4.90;99.90
20726;DHT22;10524;48.132;8.518;2023-04-01T03:48:24;4.80;99.90
20726;DHT22;10524;48.132;8.518;2023-04-01T03:50:50;4.80;99.90
20726;DHT22;10524;48.132;8.518;2023-04-01T03:53:16;4.70;99.90
20726;DHT22;10524;48.132;8.518;2023-04-01T03:55:42;4.70;99.90
20726;DHT22;10524;48.132;8.518;2023-04-01T03:58:08;4.70;99.90
20726;DHT22;10524;48.132;8.518;2023-04-01T04:00:34;4.60;99.90
20726;DHT22;10524;48.132;8.518;2023-04-01T04:03:00;4.50;99.90
20726;DHT22;10524;48.132;8.518;2023-04-01T04:05:26;4.50;99.90
20726;DHT22;10524;48.132;8.518;2023-04-01T04:07:53;4.50;99.90
20726;DHT22;10524;48.132;8.518;2023-04-01T04:10:19;4.50;99.90
20726;DHT22;10524;48.132;8.518;2023-04-01T04:12:45;4.40;99.90
20726;DHT22;10524;48.132;8.518;2023-04-01T04:15:11;4.40;99.90
20726;DHT22;10524;48.132;8.518;2023-04-01T04:17:37;4.30;99.90
20726;DHT22;10524;48.132;8.518;2023-04-01T04:20:04;4.30;99.90
20726;DHT22;10524;48.132;8.518;2023-04-01T04:22:29;4.20;99.90
20726;DHT22;10524;48.132;8.518;2023-04-01T04:24:55;4.20;99.90
20726;DHT22;10524;48.132;8.518;2023-04-01T04:27:21;4.20;99.90
20726;DHT22;10524;48.132;8.518;2023-04-01T04:29:46;4.10;99.90
20726;DHT22;10524;48.132;8.518;2023-04-01T04:32:12;4.00;99.90
20726;DHT22;10524;48.132;8.518;2023-04-01T04:34:37;4.00;99.90
20726;DHT22;10524;48.132;8.518;2023-04-01T04:37:03;4.10;99.90
20726;DHT22;10524;48.132;8.518;2023-04-01T04:39:29;4.10;99.90
20726;DHT22;10524;48.132;8.518;2023-04-01T04:41:55;4.20;99.90
20726;DHT22;10524;48.132;8.518;2023-04-01T04:44:21;4.20;99.90
20726;DHT22;10524;48.132;8.518;2023-04-01T04:46:46;4.30;99.90
20726;DHT22;10524;48.132;8.518;2023-04-01T04:49:12;4.40;99.90
20726;DHT22;10524;48.132;8.518;2023-04-01T04:51:38;4.40;99.90
20726;DHT22;10524;48.132;8.518;2023-04-01T04:54:05;4.40;99.90
20726;DHT22;10524;48.132;8.518;2023-04-01T04:56:31;4.40;99.90
20726;DHT22;10524;48.132;8.518;2023-04-01T04:58:57;4.40;99.90
20726;DHT22;10524;48.132;8.518;2023-04-01T05:01:24;4.40;99.90
20726;DHT22;10524;48.132;8.518;2023-04-01T05:03:49;4.50;99.90
20726;DHT22;10524;48.132;8.518;2023-04-01T05:06:16;4.50;99.90
20726;DHT22;10524;48.132;8.518;2023-04-01T05:08:43;4.40;99.90
20726;DHT22;10524;48.132;8.518;2023-04-01T05:11:13;4.40;99.90
20726;DHT22;10524;48.132;8.518;2023-04-01T05:13:39;4.40;99.90
20726;DHT22;10524;48.132;8.518;2023-04-01T05:16:09;4.40;99.90
20726;DHT22;10524;48.132;8.518;2023-04-01T05:18:35;4.50;99.90
20726;DHT22;10524;48.132;8.518;2023-04-01T05:21:00;4.50;99.90
20726;DHT22;10524;48.132;8.518;2023-04-01T05:23:26;4.50;99.90
20726;DHT22;10524;48.132;8.518;2023-04-01T05:25:52;4.50;99.90
20726;DHT22;10524;48.132;8.518;2023-04-01T05:28:19;4.60;99.90
20726;DHT22;10524;48.132;8.518;2023-04-01T05:30:45;4.70;99.90
20726;DHT22;10524;48.132;8.518;2023-04-01T05:33:12;4.70;99.90
20726;DHT22;10524;48.132;8.518;2023-04-01T05:35:39;4.80;99.90
20726;DHT22;10524;48.132;8.518;2023-04-01T05:38:04;4.80;99.90
20726;DHT22;10524;48.132;8.518;2023-04-01T05:40:31;4.80;99.90
20726;DHT22;10524;48.132;8.518;2023-04-01T05:42:57;4.90;99.90
20726;DHT22;10524;48.132;8.518;2023-04-01T05:45:23;4.80;99.90
20726;DHT22;10524;48.132;8.518;2023-04-01T05:47:49;4.80;99.90
20726;DHT22;10524;48.132;8.518;2023-04-01T05:50:15;4.80;99.90
20726;DHT22;10524;48.132;8.518;2023-04-01T05:52:40;4.80;99.90
20726;DHT22;10524;48.132;8.518;2023-04-01T05:55:06;4.90;99.90
20726;DHT22;10524;48.132;8.518;2023-04-01T05:57:32;4.90;99.90
20726;DHT22;10524;48.132;8.518;2023-04-01T05:59:57;4.90;99.90
20726;DHT22;10524;48.132;8.518;2023-04-01T06:02:23;4.90;99.90
20726;DHT22;10524;48.132;8.518;2023-04-01T06:04:49;4.90;99.90
20726;DHT22;10524;48.132;8.518;2023-04-01T06:07:19;4.90;99.90
20726;DHT22;10524;48.132;8.518;2023-04-01T06:09:45;5.00;99.90
20726;DHT22;10524;48.132;8.518;2023-04-01T06:28:46;5.30;99.90
20726;DHT22;10524;48.132;8.518;2023-04-01T06:31:32;5.30;99.90
20726;DHT22;10524;48.132;8.518;2023-04-01T06:54:28;5.60;99.90
20726;DHT22;10524;48.132;8.518;2023-04-01T06:57:00;5.60;99.90
20726;DHT22;10524;48.132;8.518;2023-04-01T06:59:30;5.60;99.90
20726;DHT22;10524;48.132;8.518;2023-04-01T07:02:05;5.60;99.90
20726;DHT22;10524;48.132;8.518;2023-04-01T07:04:44;5.60;99.90
20726;DHT22;10524;48.132;8.518;2023-04-01T07:07:29;5.60;99.90
20726;DHT22;10524;48.132;8.518;2023-04-01T07:09:57;5.60;99.90
20726;DHT22;10524;48.132;8.518;2023-04-01T07:12:37;5.60;99.90
20726;DHT22;10524;48.132;8.518;2023-04-01T07:15:26;5.70;99.90
20726;DHT22;10524;48.132;8.518;2023-04-01T07:18:05;5.80;99.90
20726;DHT22;10524;48.132;8.518;2023-04-01T07:20:36;5.70;99.90
20726;DHT22;10524;48.132;8.518;2023-04-01T07:23:22;5.80;99.90
20726;DHT22;10524;48.132;8.518;2023-04-01T07:25:53;5.70;99.90
20726;DHT22;10524;48.132;8.518;2023-04-01T07:28:20;5.80;99.90
20726;DHT22;10524;48.132;8.518;2023-04-01T07:31:33;5.90;99.90
20726;DHT22;10524;48.132;8.518;2023-04-01T07:34:01;5.80;99.90
20726;DHT22;10524;48.132;8.518;2023-04-01T07:36:53;5.80;99.90
20726;DHT22;10524;48.132;8.518;2023-04-01T07:45:08;5.80;99.90
20726;DHT22;10524;48.132;8.518;2023-04-01T07:50:29;5.70;99.90
20726;DHT22;10524;48.132;8.518;2023-04-01T07:53:22;5.70;99.90
20726;DHT22;10524;48.132;8.518;2023-04-01T08:01:33;5.80;99.90
20726;DHT22;10524;48.132;8.518;2023-04-01T08:04:27;5.80;99.90
20726;DHT22;10524;48.132;8.518;2023-04-01T08:12:47;5.70;99.90
20726;DHT22;10524;48.132;8.518;2023-04-01T08:16:17;5.70;99.90
20726;DHT22;10524;48.132;8.518;2023-04-01T08:18:29;5.60;99.90
20726;DHT22;10524;48.132;8.518;2023-04-01T08:21:03;5.80;99.90
20726;DHT22;10524;48.132;8.518;2023-04-01T08:23:33;5.80;99.90
20726;DHT22;10524;48.132;8.518;2023-04-01T08:29:16;5.70;99.90
20726;DHT22;10524;48.132;8.518;2023-04-01T08:32:08;5.70;99.90
20726;DHT22;10524;48.132;8.518;2023-04-01T08:34:41;5.60;99.90
20726;DHT22;10524;48.132;8.518;2023-04-01T08:37:16;5.70;99.90
20726;DHT22;10524;48.132;8.518;2023-04-01T08:39:58;5.90;99.90
20726;DHT22;10524;48.132;8.518;2023-04-01T08:56:47;6.10;99.90
20726;DHT22;10524;48.132;8.518;2023-04-01T09:13:31;5.80;99.90
20726;DHT22;10524;48.132;8.518;2023-04-01T09:41:32;6.40;99.90
20726;DHT22;10524;48.132;8.518;2023-04-01T09:55:46;6.90;99.90
20726;DHT22;10524;48.132;8.518;2023-04-01T10:06:36;6.80;99.90
20726;DHT22;10524;48.132;8.518;2023-04-01T10:09:25;6.80;99.90
20726;DHT22;10524;48.132;8.518;2023-04-01T10:12:15;7.00;99.90
20726;DHT22;10524;48.132;8.518;2023-04-01T10:50:24;7.10;99.90
20726;DHT22;10524;48.132;8.518;2023-04-01T11:07:09;7.60;99.90
20726;DHT22;10524;48.132;8.518;2023-04-01T11:29:06;8.60;99.90
20726;DHT22;10524;48.132;8.518;2023-04-01T11:34:32;9.10;99.90
20726;DHT22;10524;48.132;8.518;2023-04-01T11:37:29;9.60;99.90
20726;DHT22;10524;48.132;8.518;2023-04-01T11:42:54;9.30;99.90
20726;DHT22;10524;48.132;8.518;2023-04-01T12:02:06;7.60;99.90
20726;DHT22;10524;48.132;8.518;2023-04-01T12:07:22;7.70;99.90
20726;DHT22;10524;48.132;8.518;2023-04-01T12:13:05;7.80;99.90
20726;DHT22;10524;48.132;8.518;2023-04-01T12:43:48;8.20;99.90
20726;DHT22;10524;48.132;8.518;2023-04-01T12:46:31;7.90;99.90
20726;DHT22;10524;48.132;8.518;2023-04-01T12:57:22;7.50;99.90
20726;DHT22;10524;48.132;8.518;2023-04-01T13:08:43;7.50;99.90
20726;DHT22;10524;48.132;8.518;2023-04-01T13:12:09;7.60;99.90
20726;DHT22;10524;48.132;8.518;2023-04-01T13:14:54;7.60;99.90
20726;DHT22;10524;48.132;8.518;2023-04-01T13:20:33;7.70;99.90
20726;DHT22;10524;48.132;8.518;2023-04-01T13:26:05;7.80;99.90
20726;DHT22;10524;48.132;8.518;2023-04-01T13:28:50;8.00;99.90
20726;DHT22;10524;48.132;8.518;2023-04-01T13:32:44;8.30;99.90
20726;DHT22;10524;48.132;8.518;2023-04-01T13:43:24;8.40;99.90
20726;DHT22;10524;48.132;8.518;2023-04-01T13:46:08;8.70;99.90
20726;DHT22;10524;48.132;8.518;2023-04-01T13:51:50;9.10;99.90
20726;DHT22;10524;48.132;8.518;2023-04-01T13:54:41;9.30;99.90
20726;DHT22;10524;48.132;8.518;2023-04-01T13:57:20;9.00;99.90
20726;DHT22;10524;48.132;8.518;2023-04-01T14:00:16;8.90;99.90
20726;DHT22;10524;48.132;8.518;2023-04-01T14:05:36;8.80;99.90
20726;DHT22;10524;48.132;8.518;2023-04-01T14:08:20;9.00;99.90
20726;DHT22;10524;48.132;8.518;2023-04-01T14:13:37;9.70;99.90
20726;DHT22;10524;48.132;8.518;2023-04-01T14:16:20;10.20;99.90
20726;DHT22;10524;48.132;8.518;2023-04-01T14:21:53;10.30;99.90
20726;DHT22;10524;48.132;8.518;2023-04-01T14:30:35;10.50;99.90
20726;DHT22;10524;48.132;8.518;2023-04-01T14:33:41;10.30;99.90
20726;DHT22;10524;48.132;8.518;2023-04-01T14:39:34;10.00;99.90
20726;DHT22;10524;48.132;8.518;2023-04-01T14:50:44;10.70;99.90
20726;DHT22;10524;48.132;8.518;2023-04-01T14:53:27;10.60;99.90
20726;DHT22;10524;48.132;8.518;2023-04-01T14:55:58;10.70;99.90
20726;DHT22;10524;48.132;8.518;2023-04-01T14:58:50;10.70;99.90
20726;DHT22;10524;48.132;8.518;2023-04-01T15:01:40;10.70;99.90
20726;DHT22;10524;48.132;8.518;2023-04-01T15:15:24;10.50;99.90
20726;DHT22;10524;48.132;8.518;2023-04-01T15:26:42;10.00;99.90
20726;DHT22;10524;48.132;8.518;2023-04-01T15:36:53;9.80;99.90
20726;DHT22;10524;48.132;8.518;2023-04-01T15:39:29;9.90;99.90
20726;DHT22;10524;48.132;8.518;2023-04-01T15:42:11;10.00;99.90
20726;DHT22;10524;48.132;8.518;2023-04-01T15:55:34;9.20;99.90
20726;DHT22;10524;48.132;8.518;2023-04-01T16:03:36;9.10;99.90
20726;DHT22;10524;48.132;8.518;2023-04-01T16:09:31;9.00;99.90
20726;DHT22;10524;48.132;8.518;2023-04-01T16:18:06;9.00;99.90
20726;DHT22;10524;48.132;8.518;2023-04-01T16:20:40;9.00;99.90
20726;DHT22;10524;48.132;8.518;2023-04-01T16:23:30;9.20;99.90
20726;DHT22;10524;48.132;8.518;2023-04-01T16:26:22;9.20;99.90
20726;DHT22;10524;48.132;8.518;2023-04-01T16:31:46;9.00;99.90
20726;DHT22;10524;48.132;8.518;2023-04-01T16:34:16;9.00;99.90
20726;DHT22;10524;48.132;8.518;2023-04-01T16:39:27;8.70;99.90
20726;DHT22;10524;48.132;8.518;2023-04-01T16:47:49;8.30;99.90
20726;DHT22;10524;48.132;8.518;2023-04-01T16:50:30;8.30;99.90
20726;DHT22;10524;48.132;8.518;2023-04-01T16:58:37;7.90;99.90
20726;DHT22;10524;48.132;8.518;2023-04-01T17:01:08;7.80;99.90
20726;DHT22;10524;48.132;8.518;2023-04-01T17:03:46;7.80;99.90
20726;DHT22;10524;48.132;8.518;2023-04-01T17:08:52;7.50;99.90
20726;DHT22;10524;48.132;8.518;2023-04-01T17:11:26;7.40;99.90
20726;DHT22;10524;48.132;8.518;2023-04-01T17:14:23;7.30;99.90
20726;DHT22;10524;48.132;8.518;2023-04-01T17:17:32;7.20;99.90
20726;DHT22;10524;48.132;8.518;2023-04-01T17:20:11;7.10;99.90
20726;DHT22;10524;48.132;8.518;2023-04-01T17:22:52;7.00;99.90
20726;DHT22;10524;48.132;8.518;2023-04-01T17:25:57;6.90;99.90
20726;DHT22;10524;48.132;8.518;2023-04-01T17:45:21;6.20;99.90
20726;DHT22;10524;48.132;8.518;2023-04-01T17:50:24;6.10;99.90
20726;DHT22;10524;48.132;8.518;2023-04-01T17:53:05;6.10;99.90
20726;DHT22;10524;48.132;8.518;2023-04-01T17:58:32;6.00;99.90
20726;DHT22;10524;48.132;8.518;2023-04-01T18:01:24;6.00;99.90
20726;DHT22;10524;48.132;8.518;2023-04-01T18:04:09;5.90;99.90
20726;DHT22;10524;48.132;8.518;2023-04-01T18:15:31;5.70;99.90
20726;DHT22;10524;48.132;8.518;2023-04-01T18:23:59;5.60;99.90
20726;DHT22;10524;48.132;8.518;2023-04-01T18:26:33;5.50;99.90
20726;DHT22;10524;48.132;8.518;2023-04-01T18:29:31;5.50;99.90
20726;DHT22;10524;48.132;8.518;2023-04-01T18:32:33;5.40;99.90
20726;DHT22;10524;48.132;8.518;2023-04-01T18:38:11;5.20;99.90
20726;DHT22;10524;48.132;8.518;2023-04-01T18:41:07;5.30;99.90
20726;DHT22;10524;48.132;8.518;2023-04-01T18:46:40;5.30;99.90
20726;DHT22;10524;48.132;8.518;2023-04-01T18:49:33;5.30;99.90
20726;DHT22;10524;48.132;8.518;2023-04-01T18:55:18;5.30;99.90
20726;DHT22;10524;48.132;8.518;2023-04-01T18:57:49;5.20;99.90
20726;DHT22;10524;48.132;8.518;2023-04-01T19:00:43;5.20;99.90
20726;DHT22;10524;48.132;8.518;2023-04-01T19:05:47;5.20;99.90
20726;DHT22;10524;48.132;8.518;2023-04-01T19:16:37;4.60;99.90
20726;DHT22;10524;48.132;8.518;2023-04-01T19:20:15;4.50;99.90
20726;DHT22;10524;48.132;8.518;2023-04-01T19:25:23;4.30;99.90
20726;DHT22;10524;48.132;8.518;2023-04-01T19:27:53;4.30;99.90
20726;DHT22;10524;48.132;8.518;2023-04-01T19:33:45;4.20;99.90
20726;DHT22;10524;48.132;8.518;2023-04-01T19:38:43;4.10;99.90
20726;DHT22;10524;48.132;8.518;2023-04-01T19:49:44;3.60;99.90
20726;DHT22;10524;48.132;8.518;2023-04-01T19:52:36;3.50;99.90
20726;DHT22;10524;48.132;8.518;2023-04-01T19:55:33;3.50;99.90
20726;DHT22;10524;48.132;8.518;2023-04-01T20:00:54;3.30;99.90
20726;DHT22;10524;48.132;8.518;2023-04-01T20:03:42;3.30;99.90
20726;DHT22;10524;48.132;8.518;2023-04-01T20:08:48;3.20;99.90
20726;DHT22;10524;48.132;8.518;2023-04-01T20:13:47;3.40;99.90
20726;DHT22;10524;48.132;8.518;2023-04-01T20:16:17;3.40;99.90
20726;DHT22;10524;48.132;8.518;2023-04-01T20:18:57;3.40;99.90
20726;DHT22;10524;48.132;8.518;2023-04-01T20:21:36;3.30;99.90
20726;DHT22;10524;48.132;8.518;2023-04-01T20:24:26;3.20;99.90
20726;DHT22;10524;48.132;8.518;2023-04-01T20:29:56;3.10;99.90
20726;DHT22;10524;48.132;8.518;2023-04-01T20:35:44;3.20;99.90
20726;DHT22;10524;48.132;8.518;2023-04-01T20:44:10;3.40;99.90
20726;DHT22;10524;48.132;8.518;2023-04-01T21:11:43;2.90;99.90
20726;DHT22;10524;48.132;8.518;2023-04-01T21:22:30;2.90;99.90
20726;DHT22;10524;48.132;8.518;2023-04-01T21:27:47;2.70;99.90
20726;DHT22;10524;48.132;8.518;2023-04-01T21:43:49;2.80;99.90
20726;DHT22;10524;48.132;8.518;2023-04-01T22:00:56;3.30;99.90
20726;DHT22;10524;48.132;8.518;2023-04-01T22:06:29;3.60;99.90
20726;DHT22;10524;48.132;8.518;2023-04-01T22:09:10;3.70;99.90
20726;DHT22;10524;48.132;8.518;2023-04-01T22:17:00;3.90;99.90
20726;DHT22;10524;48.132;8.518;2023-04-01T22:19:56;3.90;99.90
20726;DHT22;10524;48.132;8.518;2023-04-01T22:23:08;3.90;99.90
20726;DHT22;10524;48.132;8.518;2023-04-01T22:31:11;3.80;99.90
20726;DHT22;10524;48.132;8.518;2023-04-01T22:33:45;3.80;99.90
20726;DHT22;10524;48.132;8.518;2023-04-01T22:45:02;3.50;99.90
20726;DHT22;10524;48.132;8.518;2023-04-01T22:48:18;3.40;99.90
20726;DHT22;10524;48.132;8.518;2023-04-01T22:56:22;3.50;99.90
20726;DHT22;10524;48.132;8.518;2023-04-01T22:59:14;3.40;99.90
20726;DHT22;10524;48.132;8.518;2023-04-01T23:01:52;3.30;99.90
20726;DHT22;10524;48.132;8.518;2023-04-01T23:04:23;3.20;99.90
20726;DHT22;10524;48.132;8.518;2023-04-01T23:06:54;3.30;99.90
20726;DHT22;10524;48.132;8.518;2023-04-01T23:09:24;3.30;99.90
20726;DHT22;10524;48.132;8.518;2023-04-01T23:12:26;3.30;99.90
20726;DHT22;10524;48.132;8.518;2023-04-01T23:14:58;3.50;99.90
20726;DHT22;10524;48.132;8.518;2023-04-01T23:28:46;3.60;99.90
20726;DHT22;10524;48.132;8.518;2023-04-01T23:31:42;3.60;99.90
20726;DHT22;10524;48.132;8.518;2023-04-01T23:34:21;3.60;99.90
20726;DHT22;10524;48.132;8.518;2023-04-01T23:36:50;3.60;99.90
20726;DHT22;10524;48.132;8.518;2023-04-01T23:39:25;3.60;99.90
20726;DHT22;10524;48.132;8.518;2023-04-01T23:41:55;3.60;99.90
20726;DHT22;10524;48.132;8.518;2023-04-01T23:44:24;3.70;99.90
20726;DHT22;10524;48.132;8.518;2023-04-01T23:46:51;3.70;99.90
20726;DHT22;10524;48.132;8.518;2023-04-01T23:49:41;3.70;99.90
20726;DHT22;10524;48.132;8.518;2023-04-01T23:52:17;3.60;99.90
20726;DHT22;10524;48.132;8.518;2023-04-01T23:57:18;3.50;99.90
20726;DHT22;10524;48.132;8.518;2023-04-01T23:59:43;3.40;99.90
